createdAt,value
2022-12-08T00:01:17.769Z,100822.50
2022-12-08T00:03:45.171Z,100820.31
2022-12-08T00:06:52.968Z,100812.41
2022-12-08T00:09:38.760Z,100810.19
2022-12-08T00:12:08.767Z,100799.44
2022-12-08T00:14:44.048Z,100805.84
2022-12-08T00:17:12.908Z,100808.72
2022-12-08T00:19:40.687Z,100817.81
2022-12-08T00:22:09.122Z,100803.13
2022-12-08T00:24:39.755Z,100806.25
2022-12-08T00:27:09.150Z,100801.41
2022-12-08T00:29:35.877Z,100801.66
2022-12-08T00:32:02.703Z,100792.25
2022-12-08T00:34:30.922Z,100792.72
2022-12-08T00:36:57.618Z,100787.78
2022-12-08T00:39:24.629Z,100787.38
2022-12-08T00:42:09.590Z,100780.06
2022-12-08T00:44:36.199Z,100789.69
2022-12-08T00:47:02.736Z,100787.59
2022-12-08T00:49:29.371Z,100783.56
2022-12-08T00:51:56.330Z,100781.28
2022-12-08T00:54:24.259Z,100770.22
2022-12-08T00:56:51.391Z,100775.75
2022-12-08T00:59:18.105Z,100772.22
2022-12-08T01:01:46.243Z,100772.06
2022-12-08T01:04:15.662Z,100762.03
2022-12-08T01:06:42.925Z,100763.63
2022-12-08T01:09:11.409Z,100754.41
2022-12-08T01:11:38.195Z,100747.63
2022-12-08T01:14:04.784Z,100753.75
2022-12-08T01:16:34.660Z,100762.59
2022-12-08T01:19:01.811Z,100753.97
2022-12-08T01:21:29.125Z,100757.91
2022-12-08T01:23:56.310Z,100761.69
2022-12-08T01:26:22.929Z,100757.81
2022-12-08T01:28:49.604Z,100744.22
2022-12-08T01:31:19.267Z,100749.34
2022-12-08T01:33:46.800Z,100751.03
2022-12-08T01:36:28.206Z,100752.41
2022-12-08T01:38:58.272Z,100756.38
2022-12-08T01:41:28.691Z,100749.38
2022-12-08T01:44:08.843Z,100749.94
2022-12-08T01:46:37.587Z,100743.47
2022-12-08T01:49:22.545Z,100745.91
2022-12-08T01:52:00.220Z,100745.16
2022-12-08T01:54:31.773Z,100740.91
2022-12-08T01:57:08.634Z,100742.34
2022-12-08T01:59:41.362Z,100747.00
2022-12-08T02:02:10.443Z,100735.53
2022-12-08T02:04:37.642Z,100737.34
2022-12-08T02:07:08.365Z,100731.78
2022-12-08T02:09:36.612Z,100739.38
2022-12-08T02:12:03.504Z,100742.69
2022-12-08T02:14:30.267Z,100743.16
2022-12-08T02:17:15.768Z,100739.91
2022-12-08T02:19:45.263Z,100735.44
2022-12-08T02:22:18.469Z,100739.47
2022-12-08T02:25:31.318Z,100737.53
2022-12-08T02:28:00.653Z,100737.91
2022-12-08T02:30:42.098Z,100736.91
2022-12-08T02:33:26.919Z,100746.09
2022-12-08T02:36:16.249Z,100748.84
2022-12-08T02:39:12.679Z,100742.06
2022-12-08T02:42:23.538Z,100745.63
2022-12-08T02:44:58.885Z,100745.06
2022-12-08T02:47:28.298Z,100741.09
2022-12-08T02:49:56.234Z,100738.72
2022-12-08T02:52:22.748Z,100729.16
2022-12-08T02:55:13.283Z,100729.53
2022-12-08T02:58:01.458Z,100728.25
2022-12-08T03:00:33.695Z,100725.50
2022-12-08T03:03:19.591Z,100717.50
2022-12-08T03:06:44.608Z,100720.66
2022-12-08T03:09:29.590Z,100714.31
2022-12-08T03:12:04.224Z,100717.25
2022-12-08T03:14:33.717Z,100711.56
2022-12-08T03:17:01.019Z,100705.22
2022-12-08T03:19:33.126Z,100709.09
2022-12-08T03:22:03.364Z,100703.56
2022-12-08T03:24:34.752Z,100699.53
2022-12-08T03:27:06.984Z,100697.25
2022-12-08T03:29:34.359Z,100696.13
2022-12-08T03:32:38.580Z,100701.38
2022-12-08T03:35:16.414Z,100699.44
2022-12-08T03:37:43.674Z,100698.88
2022-12-08T03:40:13.837Z,100688.69
2022-12-08T03:42:40.514Z,100696.00
2022-12-08T03:45:07.718Z,100686.22
2022-12-08T03:47:34.340Z,100682.38
2022-12-08T03:50:01.104Z,100678.69
2022-12-08T03:52:27.895Z,100670.88
2022-12-08T03:54:54.483Z,100668.16
2022-12-08T03:57:21.707Z,100666.47
2022-12-08T03:59:48.341Z,100657.59
2022-12-08T04:02:14.986Z,100661.88
2022-12-08T04:04:41.586Z,100651.50
2022-12-08T04:07:08.324Z,100643.53
2022-12-08T04:09:34.885Z,100643.34
2022-12-08T04:12:01.503Z,100643.44
2022-12-08T04:14:28.074Z,100649.22
2022-12-08T04:16:54.686Z,100636.72
2022-12-08T04:19:21.318Z,100644.53
2022-12-08T04:21:47.921Z,100645.19
2022-12-08T04:24:14.524Z,100647.94
2022-12-08T04:26:41.235Z,100641.91
2022-12-08T04:29:07.816Z,100644.81
2022-12-08T04:31:34.483Z,100651.22
2022-12-08T04:34:01.165Z,100652.06
2022-12-08T04:36:27.820Z,100656.50
2022-12-08T04:38:54.408Z,100660.25
2022-12-08T04:41:21.219Z,100650.25
2022-12-08T04:43:47.789Z,100640.63
2022-12-08T04:46:14.488Z,100652.06
2022-12-08T04:48:41.873Z,100649.97
2022-12-08T04:51:15.837Z,100646.56
2022-12-08T04:53:46.485Z,100644.56
2022-12-08T04:56:18.451Z,100642.63
2022-12-08T04:58:45.922Z,100641.88
2022-12-08T05:01:13.410Z,100645.09
2022-12-08T05:03:40.099Z,100649.41
2022-12-08T05:06:07.190Z,100648.75
2022-12-08T05:08:33.955Z,100644.38
2022-12-08T05:11:05.628Z,100636.19
2022-12-08T05:13:32.518Z,100639.94
2022-12-08T05:16:13.268Z,100636.63
2022-12-08T05:18:41.593Z,100633.06
2022-12-08T05:21:09.209Z,100632.78
2022-12-08T05:23:36.411Z,100629.13
2022-12-08T05:26:03.443Z,100628.47
2022-12-08T05:28:41.488Z,100625.34
2022-12-08T05:31:08.887Z,100624.44
2022-12-08T05:33:35.540Z,100617.94
2022-12-08T05:36:02.144Z,100624.91
2022-12-08T05:38:29.516Z,100624.53
2022-12-08T05:40:56.151Z,100622.25
2022-12-08T05:43:22.709Z,100621.03
2022-12-08T05:45:49.777Z,100629.94
2022-12-08T05:48:16.751Z,100622.88
2022-12-08T05:50:47.985Z,100623.06
2022-12-08T05:53:15.994Z,100620.13
2022-12-08T05:55:42.647Z,100629.03
2022-12-08T05:58:16.753Z,100623.50
2022-12-08T06:00:44.146Z,100629.94
2022-12-08T06:03:12.518Z,100639.41
2022-12-08T06:05:41.348Z,100636.91
2022-12-08T06:08:08.558Z,100641.88
2022-12-08T06:10:35.201Z,100646.81
2022-12-08T06:13:01.774Z,100642.34
2022-12-08T06:15:28.430Z,100647.84
2022-12-08T06:17:55.019Z,100650.78
2022-12-08T06:20:21.684Z,100652.31
2022-12-08T06:22:48.280Z,100652.13
2022-12-08T06:25:14.960Z,100650.84
2022-12-08T06:27:41.527Z,100656.44
2022-12-08T06:30:08.581Z,100663.22
2022-12-08T06:32:36.280Z,100652.59
2022-12-08T06:35:03.063Z,100647.63
2022-12-08T06:37:29.663Z,100642.88
2022-12-08T06:39:56.878Z,100646.47
2022-12-08T06:42:42.542Z,100640.59
2022-12-08T06:45:10.816Z,100656.38
2022-12-08T06:47:37.447Z,100645.63
2022-12-08T06:50:05.930Z,100656.09
2022-12-08T06:52:32.807Z,100647.47
2022-12-08T06:54:59.412Z,100643.44
2022-12-08T06:57:26.237Z,100641.34
2022-12-08T06:59:52.950Z,100633.81
2022-12-08T07:02:19.712Z,100631.81
2022-12-08T07:04:46.327Z,100630.97
2022-12-08T07:07:12.935Z,100630.16
2022-12-08T07:09:39.566Z,100632.22
2022-12-08T07:12:06.411Z,100633.19
2022-12-08T07:14:33.081Z,100626.47
2022-12-08T07:17:00.317Z,100628.47
2022-12-08T07:19:27.162Z,100623.81
2022-12-08T07:21:53.777Z,100626.66
2022-12-08T07:24:20.467Z,100630.34
2022-12-08T07:26:47.079Z,100621.13
2022-12-08T07:29:13.879Z,100622.28
2022-12-08T07:31:40.477Z,100617.94
2022-12-08T07:34:07.084Z,100619.31
2022-12-08T07:36:33.760Z,100626.94
2022-12-08T07:39:00.396Z,100625.84
2022-12-08T07:41:27.114Z,100621.13
2022-12-08T07:43:54.523Z,100625.75
2022-12-08T07:46:23.506Z,100629.22
2022-12-08T07:48:52.497Z,100629.50
2022-12-08T07:51:19.282Z,100637.94
2022-12-08T07:53:53.380Z,100636.56
2022-12-08T07:56:21.987Z,100639.97
2022-12-08T07:58:48.811Z,100638.84
2022-12-08T08:01:28.102Z,100632.81
2022-12-08T08:03:56.636Z,100629.84
2022-12-08T08:06:24.168Z,100627.31
2022-12-08T08:08:50.843Z,100626.81
2022-12-08T08:11:21.255Z,100628.78
2022-12-08T08:13:49.946Z,100632.44
2022-12-08T08:16:17.152Z,100635.53
2022-12-08T08:18:46.212Z,100630.84
2022-12-08T08:23:59.374Z,100640.22
2022-12-08T08:26:25.983Z,100639.59
2022-12-08T08:28:52.692Z,100636.09
2022-12-08T08:31:25.084Z,100638.41
2022-12-08T08:33:51.971Z,100630.44
2022-12-08T08:36:18.751Z,100625.28
2022-12-08T08:38:45.400Z,100617.75
2022-12-08T08:41:12.105Z,100618.41
2022-12-08T08:43:39.061Z,100623.19
2022-12-08T08:46:07.017Z,100620.41
2022-12-08T08:48:33.999Z,100604.53
2022-12-08T08:51:09.042Z,100602.50
2022-12-08T08:53:36.150Z,100612.22
2022-12-08T08:56:05.193Z,100613.56
2022-12-08T08:58:31.953Z,100607.41
2022-12-08T09:00:58.695Z,100604.47
2022-12-08T09:03:25.454Z,100594.91
2022-12-08T09:05:52.237Z,100597.44
2022-12-08T09:08:19.097Z,100586.91
2022-12-08T09:10:45.922Z,100576.41
2022-12-08T09:13:12.627Z,100581.03
2022-12-08T09:15:39.540Z,100585.63
2022-12-08T09:18:09.480Z,100595.53
2022-12-08T09:20:36.143Z,100605.69
2022-12-08T09:23:02.812Z,100618.44
2022-12-08T09:25:29.481Z,100618.47
2022-12-08T09:27:56.207Z,100607.16
2022-12-08T09:30:22.950Z,100610.75
2022-12-08T09:32:49.616Z,100606.88
2022-12-08T09:35:16.425Z,100609.75
2022-12-08T09:37:43.088Z,100608.00
2022-12-08T09:40:15.263Z,100610.16
2022-12-08T09:42:51.436Z,100614.56
2022-12-08T09:45:19.884Z,100608.44
2022-12-08T09:48:04.457Z,100604.75
2022-12-08T09:50:35.486Z,100605.59
2022-12-08T09:53:19.954Z,100598.59
2022-12-08T09:55:51.452Z,100590.53
2022-12-08T09:58:38.940Z,100591.66
2022-12-08T10:01:05.612Z,100584.59
2022-12-08T10:03:32.249Z,100585.53
2022-12-08T10:06:10.247Z,100582.28
2022-12-08T10:08:47.890Z,100590.59
2022-12-08T10:11:24.623Z,100584.91
2022-12-08T10:13:51.262Z,100584.50
2022-12-08T10:16:41.194Z,100578.97
2022-12-08T10:19:28.898Z,100565.78
2022-12-08T10:21:56.918Z,100564.16
2022-12-08T10:24:48.953Z,100566.22
2022-12-08T10:27:15.887Z,100562.31
2022-12-08T10:29:42.449Z,100564.16
2022-12-08T10:32:19.020Z,100555.53
2022-12-08T10:35:00.857Z,100554.72
2022-12-08T10:37:27.463Z,100560.69
2022-12-08T10:40:22.279Z,100551.63
2022-12-08T10:42:55.494Z,100543.41
2022-12-08T10:45:24.953Z,100538.06
2022-12-08T10:48:09.862Z,100540.53
2022-12-08T10:50:42.697Z,100536.22
2022-12-08T10:53:09.382Z,100535.81
2022-12-08T10:55:44.356Z,100538.69
2022-12-08T10:58:24.628Z,100535.81
2022-12-08T11:00:57.019Z,100532.09
2022-12-08T11:03:55.514Z,100542.59
2022-12-08T11:06:31.347Z,100527.81
2022-12-08T11:09:01.701Z,100525.31
2022-12-08T11:11:54.064Z,100522.03
2022-12-08T11:14:25.688Z,100519.56
2022-12-08T11:16:56.000Z,100523.88
2022-12-08T11:19:29.371Z,100518.31
2022-12-08T11:21:57.098Z,100509.88
2022-12-08T11:24:28.589Z,100498.63
2022-12-08T11:27:02.585Z,100497.59
2022-12-08T11:29:32.745Z,100496.34
2022-12-08T11:32:05.681Z,100486.88
2022-12-08T11:34:35.669Z,100494.91
2022-12-08T11:37:06.399Z,100484.00
2022-12-08T11:39:36.387Z,100482.38
2022-12-08T11:42:07.891Z,100473.72
2022-12-08T11:44:42.276Z,100469.22
2022-12-08T11:47:14.910Z,100465.91
2022-12-08T11:49:43.169Z,100464.69
2022-12-08T11:52:29.865Z,100455.00
2022-12-08T11:54:59.555Z,100449.06
2022-12-08T11:57:28.645Z,100451.13
2022-12-08T11:59:58.085Z,100441.47
2022-12-08T12:02:29.074Z,100439.81
2022-12-08T12:04:59.557Z,100429.75
2022-12-08T12:08:04.649Z,100419.44
2022-12-08T12:10:49.720Z,100420.09
2022-12-08T12:13:50.138Z,100416.78
2022-12-08T12:16:36.070Z,100412.44
2022-12-08T12:19:10.789Z,100403.84
2022-12-08T12:21:49.151Z,100402.00
2022-12-08T12:24:26.741Z,100400.34
2022-12-08T12:27:08.083Z,100388.00
2022-12-08T12:29:38.480Z,100377.75
2022-12-08T12:32:08.654Z,100384.91
2022-12-08T12:34:43.468Z,100381.44
2022-12-08T12:37:14.946Z,100377.09
2022-12-08T12:39:59.844Z,100378.72
2022-12-08T12:42:37.248Z,100368.88
2022-12-08T12:45:21.831Z,100362.66
2022-12-08T12:47:57.884Z,100365.38
2022-12-08T12:50:33.756Z,100346.25
2022-12-08T12:53:02.916Z,100356.75
2022-12-08T12:55:54.323Z,100350.16
2022-12-08T12:58:29.835Z,100348.53
2022-12-08T13:01:08.516Z,100337.03
2022-12-08T13:03:36.276Z,100340.53
2022-12-08T13:06:03.764Z,100331.09
2022-12-08T13:08:31.437Z,100327.19
2022-12-08T13:11:09.036Z,100313.84
2022-12-08T13:13:37.807Z,100312.81
2022-12-08T13:16:18.957Z,100315.28
2022-12-08T13:18:51.271Z,100317.13
2022-12-08T13:21:23.632Z,100307.69
2022-12-08T13:24:17.916Z,100306.84
2022-12-08T13:27:09.270Z,100302.78
2022-12-08T13:29:37.367Z,100299.06
2022-12-08T13:32:09.837Z,100298.66
2022-12-08T13:34:51.460Z,100302.34
2022-12-08T13:37:26.879Z,100295.38
2022-12-08T13:40:06.644Z,100295.56
2022-12-08T13:42:42.982Z,100279.34
2022-12-08T13:45:33.548Z,100275.88
2022-12-08T13:48:52.306Z,100278.94
2022-12-08T13:53:10.591Z,100283.63
2022-12-08T13:57:30.384Z,100269.47
2022-12-08T14:00:01.516Z,100268.66
2022-12-08T14:02:42.045Z,100268.66
2022-12-08T14:05:29.762Z,100273.41
2022-12-08T14:07:59.772Z,100275.66
2022-12-08T14:10:30.483Z,100272.97
2022-12-08T14:13:01.356Z,100275.66
2022-12-08T14:15:33.997Z,100256.75
2022-12-08T14:18:03.744Z,100246.69
2022-12-08T14:20:35.864Z,100234.56
2022-12-08T14:23:09.371Z,100229.25
2022-12-08T14:25:36.164Z,100220.41
2022-12-08T14:28:05.023Z,100216.31
2022-12-08T14:30:33.223Z,100212.19
2022-12-08T14:33:02.092Z,100214.88
2022-12-08T14:35:31.643Z,100218.34
2022-12-08T14:38:01.461Z,100220.59
2022-12-08T14:40:35.882Z,100213.41
2022-12-08T14:43:12.518Z,100209.28
2022-12-08T14:45:39.129Z,100202.31
2022-12-08T14:48:36.503Z,100208.28
2022-12-08T14:51:21.431Z,100213.41
2022-12-08T14:53:58.897Z,100208.06
2022-12-08T14:56:36.953Z,100205.59
2022-12-08T14:59:37.937Z,100199.88
2022-12-08T15:02:19.358Z,100201.34
2022-12-08T15:04:48.548Z,100192.91
2022-12-08T15:07:23.709Z,100189.81
2022-12-08T15:10:19.892Z,100187.78
2022-12-08T15:13:11.452Z,100189.00
2022-12-08T15:15:55.948Z,100198.66
2022-12-08T15:18:36.019Z,100199.69
2022-12-08T15:21:05.972Z,100194.97
2022-12-08T15:23:42.552Z,100186.16
2022-12-08T15:26:11.695Z,100184.28
2022-12-08T15:28:38.387Z,100189.84
2022-12-08T15:31:05.174Z,100187.59
2022-12-08T15:33:31.943Z,100176.50
2022-12-08T15:35:58.834Z,100183.47
2022-12-08T15:38:28.891Z,100181.22
2022-12-08T15:40:57.560Z,100172.00
2022-12-08T15:43:24.442Z,100168.28
2022-12-08T15:45:59.025Z,100160.69
2022-12-08T15:48:28.802Z,100154.13
2022-12-08T15:50:56.386Z,100147.97
2022-12-08T15:53:23.364Z,100137.09
2022-12-08T15:56:18.971Z,100134.22
2022-12-08T15:58:53.599Z,100128.47
2022-12-08T16:01:21.941Z,100138.94
2022-12-08T16:09:39.433Z,100141.59
2022-12-08T16:13:26.771Z,100140.38
2022-12-08T16:15:50.077Z,100136.47
2022-12-08T16:18:17.353Z,100134.22
2022-12-08T16:21:07.396Z,100124.16
2022-12-08T16:23:46.381Z,100124.59
2022-12-08T16:27:01.124Z,100122.13
2022-12-08T16:29:07.464Z,100093.41
2022-12-08T16:31:35.176Z,100090.13
2022-12-08T16:34:01.959Z,100114.53
2022-12-08T16:36:28.603Z,100120.69
2022-12-08T16:38:55.202Z,100109.38
2022-12-08T16:41:40.289Z,100106.53
2022-12-08T16:44:06.975Z,100101.00
2022-12-08T16:46:33.679Z,100110.22
2022-12-08T16:49:00.622Z,100097.09
2022-12-08T16:51:27.779Z,100087.66
2022-12-08T16:53:58.357Z,100089.69
2022-12-08T16:56:32.155Z,100087.03
2022-12-08T16:58:59.827Z,100089.69
2022-12-08T17:01:26.585Z,100086.22
2022-12-08T17:04:22.611Z,100085.56
2022-12-08T17:06:40.334Z,100086.38
2022-12-08T17:09:07.311Z,100086.81
2022-12-08T17:11:39.186Z,100083.50
2022-12-08T17:14:09.534Z,100073.03
2022-12-08T17:16:36.241Z,100065.03
2022-12-08T17:19:03.027Z,100053.13
2022-12-08T17:21:29.856Z,100056.22
2022-12-08T17:23:56.717Z,100043.91
2022-12-08T17:26:23.453Z,100037.56
2022-12-08T17:29:05.544Z,100048.22
2022-12-08T17:31:33.102Z,100050.47
2022-12-08T17:34:05.326Z,100049.84
2022-12-08T17:36:32.620Z,100040.19
2022-12-08T17:39:01.210Z,100042.00
2022-12-08T17:41:28.996Z,100047.13
2022-12-08T17:43:55.836Z,100053.69
2022-12-08T17:46:23.429Z,100047.13
2022-12-08T17:48:50.381Z,100062.53
2022-12-08T17:51:17.462Z,100060.66
2022-12-08T17:53:44.597Z,100062.09
2022-12-08T17:56:16.720Z,100065.38
2022-12-08T17:58:43.473Z,100064.19
2022-12-08T18:01:12.540Z,100067.09
2022-12-08T18:03:39.736Z,100075.47
2022-12-08T18:06:09.147Z,100065.00
2022-12-08T18:08:36.619Z,100070.53
2022-12-08T18:11:04.561Z,100078.13
2022-12-08T18:13:31.990Z,100078.56
2022-12-08T18:15:58.711Z,100079.38
2022-12-08T18:18:25.409Z,100085.13
2022-12-08T18:20:52.053Z,100088.81
2022-12-08T18:23:18.839Z,100080.38
2022-12-08T18:25:45.664Z,100070.34
2022-12-08T18:28:12.259Z,100065.44
2022-12-08T18:30:40.404Z,100058.03
2022-12-08T18:33:07.644Z,100049.81
2022-12-08T18:35:34.725Z,100059.88
2022-12-08T18:38:02.423Z,100055.13
2022-12-08T18:40:29.476Z,100061.31
2022-12-08T18:42:56.170Z,100058.44
2022-12-08T18:45:23.157Z,100045.53
2022-12-08T18:47:51.307Z,100039.97
2022-12-08T18:50:18.284Z,100038.50
2022-12-08T18:52:46.038Z,100032.19
2022-12-08T18:55:12.948Z,100024.13
2022-12-08T18:57:42.978Z,100020.44
2022-12-08T19:00:13.700Z,100020.22
2022-12-08T19:02:40.911Z,100031.31
2022-12-08T19:05:10.332Z,100035.00
2022-12-08T19:07:37.080Z,100030.28
2022-12-08T19:10:04.745Z,100015.88
2022-12-08T19:12:31.600Z,100009.94
2022-12-08T19:14:58.371Z,100007.09
2022-12-08T19:17:25.901Z,100017.31
2022-12-08T19:19:52.586Z,100020.63
2022-12-08T19:22:19.222Z,100012.84
2022-12-08T19:24:46.219Z,100010.81
2022-12-08T19:27:12.830Z,100003.44
2022-12-08T19:29:39.560Z,99995.25
2022-12-08T19:32:06.240Z,99989.06
2022-12-08T19:34:32.981Z,99978.59
2022-12-08T19:36:59.642Z,99974.28
2022-12-08T19:39:44.743Z,99970.38
2022-12-08T19:42:40.178Z,99970.19
2022-12-08T19:45:16.153Z,99974.09
2022-12-08T19:47:43.847Z,99973.16
2022-12-08T19:50:36.298Z,99975.59
2022-12-08T19:53:11.004Z,99975.19
2022-12-08T19:55:37.884Z,99974.75
2022-12-08T19:58:06.392Z,99966.97
2022-12-08T20:00:34.368Z,99967.75
2022-12-08T20:03:02.445Z,99962.44
2022-12-08T20:05:30.088Z,99958.31
2022-12-08T20:07:57.175Z,99955.03
2022-12-08T20:10:30.265Z,99957.94
2022-12-08T20:13:17.182Z,99959.16
2022-12-08T20:15:44.466Z,99967.75
2022-12-08T20:18:12.800Z,99965.91
2022-12-08T20:20:40.554Z,99963.84
2022-12-08T20:23:08.098Z,99965.84
2022-12-08T20:25:37.130Z,99963.81
2022-12-08T20:28:03.989Z,99963.81
2022-12-08T20:30:30.663Z,99961.94
2022-12-08T20:32:57.330Z,99962.59
2022-12-08T20:35:24.078Z,99969.16
2022-12-08T20:37:50.751Z,99962.56
2022-12-08T20:40:17.488Z,99973.25
2022-12-08T20:42:44.215Z,99979.41
2022-12-08T20:45:10.975Z,99963.59
2022-12-08T20:47:38.328Z,99960.72
2022-12-08T20:50:06.784Z,99961.06
2022-12-08T20:52:33.778Z,99961.03
2022-12-08T20:55:00.580Z,99976.22
2022-12-08T20:57:27.326Z,99963.53
2022-12-08T20:59:54.229Z,99963.75
2022-12-08T21:02:21.098Z,99960.06
2022-12-08T21:04:48.266Z,99959.19
2022-12-08T21:07:15.522Z,99958.63
2022-12-08T21:09:42.289Z,99948.97
2022-12-08T21:12:09.040Z,99950.78
2022-12-08T21:14:35.969Z,99945.63
2022-12-08T21:17:02.820Z,99951.19
2022-12-08T21:19:29.798Z,99955.47
2022-12-08T21:21:56.630Z,99947.63
2022-12-08T21:24:26.405Z,99948.69
2022-12-08T21:26:55.707Z,99958.59
2022-12-08T21:29:22.365Z,99954.84
2022-12-08T21:31:49.280Z,99946.03
2022-12-08T21:34:16.248Z,99933.91
2022-12-08T21:36:43.050Z,99926.72
2022-12-08T21:39:12.860Z,99917.50
2022-12-08T21:41:58.328Z,99921.19
2022-12-08T21:44:25.261Z,99934.28
2022-12-08T21:46:52.161Z,99932.69
2022-12-08T21:49:19.223Z,99940.50
2022-12-08T21:51:45.931Z,99941.72
2022-12-08T21:54:18.430Z,99939.94
2022-12-08T21:56:47.214Z,99946.06
2022-12-08T21:59:15.346Z,99947.72
2022-12-08T22:01:45.281Z,99950.19
2022-12-08T22:04:16.020Z,99952.84
2022-12-08T22:06:42.832Z,99952.84
2022-12-08T22:09:11.819Z,99961.63
2022-12-08T22:11:38.601Z,99954.06
2022-12-08T22:14:08.369Z,99946.94
2022-12-08T22:16:39.500Z,99948.97
2022-12-08T22:19:06.110Z,99936.28
2022-12-08T22:21:32.873Z,99927.69
2022-12-08T22:24:01.009Z,99923.53
2022-12-08T22:26:27.797Z,99918.41
2022-12-08T22:28:54.374Z,99921.28
2022-12-08T22:31:21.165Z,99908.31
2022-12-08T22:33:49.989Z,99910.38
2022-12-08T22:36:22.451Z,99901.75
2022-12-08T22:38:50.014Z,99922.84
2022-12-08T22:41:18.177Z,99946.81
2022-12-08T22:43:45.938Z,99950.53
2022-12-08T22:46:22.325Z,99947.63
2022-12-08T22:48:49.597Z,99943.34
2022-12-08T22:51:16.974Z,99941.31
2022-12-08T22:53:43.932Z,99944.41
2022-12-08T22:56:12.694Z,99937.19
2022-12-08T22:58:40.876Z,99934.53
2022-12-08T23:01:08.963Z,99933.63
2022-12-08T23:03:36.121Z,99927.84
2022-12-08T23:06:03.110Z,99925.19
2022-12-08T23:08:30.105Z,99921.72
2022-12-08T23:10:57.952Z,99920.66
2022-12-08T23:13:24.855Z,99920.06
2022-12-08T23:15:51.500Z,99903.84
2022-12-08T23:18:19.675Z,99887.41
2022-12-08T23:20:47.285Z,99879.22
2022-12-08T23:23:14.748Z,99879.56
2022-12-08T23:25:42.188Z,99883.25
2022-12-08T23:28:10.241Z,99863.09
2022-12-08T23:30:40.298Z,99841.78
2022-12-08T23:33:07.041Z,99824.94
2022-12-08T23:35:34.046Z,99822.41
2022-12-08T23:38:02.024Z,99820.94
2022-12-08T23:40:28.840Z,99815.19
2022-12-08T23:42:55.553Z,99796.06
2022-12-08T23:45:22.355Z,99774.28
2022-12-08T23:47:49.119Z,99766.66
2022-12-08T23:50:15.841Z,99754.50
2022-12-08T23:52:42.595Z,99720.03
2022-12-08T23:55:09.584Z,99722.91
2022-12-08T23:57:37.100Z,99719.59
